createdAt,value
2023-03-19T00:00:44.201Z,17.20
2023-03-19T00:03:11.282Z,11.60
2023-03-19T00:05:38.198Z,14.10
2023-03-19T00:08:05.568Z,13.25
2023-03-19T00:10:32.487Z,14.98
2023-03-19T00:12:59.361Z,14.43
2023-03-19T00:15:26.316Z,15.82
2023-03-19T00:17:54.289Z,14.52
2023-03-19T00:20:22.240Z,13.95
2023-03-19T00:22:49.152Z,17.58
2023-03-19T00:25:16.404Z,13.30
2023-03-19T00:27:44.543Z,15.65
2023-03-19T00:30:11.967Z,21.33
2023-03-19T00:32:39.492Z,13.85
2023-03-19T00:35:07.263Z,17.55
2023-03-19T00:37:35.099Z,17.50
2023-03-19T00:40:02.124Z,15.30
2023-03-19T00:42:29.009Z,18.23
2023-03-19T00:44:55.984Z,18.40
2023-03-19T00:47:23.914Z,17.90
2023-03-19T00:49:50.974Z,18.63
2023-03-19T00:52:17.831Z,16.98
2023-03-19T00:54:44.673Z,15.00
2023-03-19T00:57:11.627Z,20.52
2023-03-19T00:59:38.470Z,19.83
2023-03-19T01:02:05.412Z,18.48
2023-03-19T01:04:32.351Z,19.85
2023-03-19T01:09:26.604Z,17.13
2023-03-19T01:11:53.626Z,17.80
2023-03-19T01:14:20.682Z,14.50
2023-03-19T01:16:47.570Z,20.33
2023-03-19T01:19:15.904Z,20.10
2023-03-19T01:21:46.311Z,16.95
2023-03-19T01:24:13.828Z,20.35
2023-03-19T01:26:41.060Z,19.13
2023-03-19T01:29:08.382Z,19.23
2023-03-19T01:31:35.880Z,16.73
2023-03-19T01:34:03.164Z,18.50
2023-03-19T01:36:30.443Z,18.65
2023-03-19T01:38:57.356Z,20.98
2023-03-19T01:41:24.479Z,17.05
2023-03-19T01:43:51.393Z,18.58
2023-03-19T01:46:38.744Z,19.25
2023-03-19T01:49:08.120Z,19.20
2023-03-19T01:51:45.442Z,17.70
2023-03-19T01:54:16.891Z,17.05
2023-03-19T01:56:45.379Z,16.98
2023-03-19T01:59:21.390Z,16.75
2023-03-19T02:01:57.845Z,16.40
2023-03-19T02:04:30.919Z,16.20
2023-03-19T02:06:59.596Z,15.65
2023-03-19T02:09:29.125Z,16.63
2023-03-19T02:14:24.325Z,14.80
2023-03-19T02:16:51.480Z,14.23
2023-03-19T02:19:35.623Z,14.27
2023-03-19T02:22:03.575Z,13.30
2023-03-19T02:24:35.256Z,12.98
2023-03-19T02:27:02.582Z,13.98
2023-03-19T02:29:29.414Z,12.77
2023-03-19T02:31:56.620Z,12.05
2023-03-19T02:34:23.394Z,12.15
2023-03-19T02:37:02.502Z,10.95
2023-03-19T02:39:46.138Z,9.57
2023-03-19T02:42:16.004Z,7.55
2023-03-19T02:44:43.081Z,9.32
2023-03-19T02:47:10.393Z,6.57
2023-03-19T02:49:37.325Z,6.00
2023-03-19T02:52:04.427Z,5.47
2023-03-19T02:54:31.238Z,5.57
2023-03-19T02:56:58.192Z,5.85
2023-03-19T02:59:25.056Z,5.30
2023-03-19T03:01:52.410Z,5.18
2023-03-19T03:04:19.475Z,7.13
2023-03-19T03:06:46.403Z,5.30
2023-03-19T03:09:13.680Z,6.10
2023-03-19T03:11:43.247Z,6.20
2023-03-19T03:14:11.156Z,5.40
2023-03-19T03:16:38.225Z,8.32
2023-03-19T03:19:05.985Z,7.10
2023-03-19T03:21:35.486Z,5.38
2023-03-19T03:24:02.908Z,5.10
2023-03-19T03:26:29.805Z,5.35
2023-03-19T03:28:56.616Z,5.05
2023-03-19T03:31:23.831Z,5.85
2023-03-19T03:33:50.720Z,5.93
2023-03-19T03:36:17.656Z,5.53
2023-03-19T03:38:45.238Z,5.70
2023-03-19T03:41:12.241Z,5.18
2023-03-19T03:43:39.605Z,5.25
2023-03-19T03:46:07.835Z,6.25
2023-03-19T03:48:35.593Z,5.55
2023-03-19T03:51:03.248Z,5.70
2023-03-19T03:53:30.401Z,5.78
2023-03-19T03:55:57.256Z,5.93
2023-03-19T03:58:24.205Z,5.35
2023-03-19T04:00:51.506Z,5.55
2023-03-19T04:03:19.504Z,5.38
2023-03-19T04:05:46.478Z,5.93
2023-03-19T04:08:13.824Z,6.07
2023-03-19T04:10:42.389Z,5.80
2023-03-19T04:13:10.368Z,5.83
2023-03-19T04:15:37.270Z,5.43
2023-03-19T04:18:04.148Z,5.60
2023-03-19T04:20:31.382Z,5.88
2023-03-19T04:22:58.353Z,6.13
2023-03-19T04:25:26.037Z,6.20
2023-03-19T04:27:52.902Z,6.20
2023-03-19T04:30:20.088Z,5.53
2023-03-19T04:32:47.634Z,5.55
2023-03-19T04:35:14.790Z,5.65
2023-03-19T04:37:43.455Z,5.93
2023-03-19T04:40:11.077Z,6.28
2023-03-19T04:42:37.874Z,5.53
2023-03-19T04:45:05.199Z,5.55
2023-03-19T04:47:32.054Z,5.88
2023-03-19T04:49:58.896Z,5.55
2023-03-19T04:52:26.108Z,5.50
2023-03-19T04:54:53.251Z,5.25
2023-03-19T04:57:20.015Z,5.32
2023-03-19T04:59:46.981Z,6.00
2023-03-19T05:02:13.758Z,6.10
2023-03-19T05:04:41.053Z,5.45
2023-03-19T05:07:08.030Z,5.82
2023-03-19T05:09:34.883Z,5.82
2023-03-19T05:12:01.789Z,5.70
2023-03-19T05:14:28.818Z,6.10
2023-03-19T05:16:55.692Z,5.88
2023-03-19T05:19:22.881Z,5.93
2023-03-19T05:21:49.841Z,5.68
2023-03-19T05:24:16.733Z,6.57
2023-03-19T05:26:43.781Z,6.55
2023-03-19T05:29:11.284Z,6.22
2023-03-19T05:31:38.524Z,6.55
2023-03-19T05:34:05.755Z,5.07
2023-03-19T05:36:32.624Z,7.45
2023-03-19T05:38:59.508Z,6.72
2023-03-19T05:41:27.043Z,6.60
2023-03-19T05:43:54.065Z,7.55
2023-03-19T05:46:20.954Z,7.22
2023-03-19T05:48:47.885Z,6.10
2023-03-19T05:51:14.824Z,7.22
2023-03-19T05:53:41.867Z,6.60
2023-03-19T05:56:08.923Z,5.93
2023-03-19T05:58:36.189Z,5.82
2023-03-19T06:01:03.377Z,6.60
2023-03-19T06:03:30.720Z,6.45
2023-03-19T06:05:58.216Z,6.55
2023-03-19T06:08:25.123Z,5.22
2023-03-19T06:10:53.163Z,5.93
2023-03-19T06:13:20.559Z,6.72
2023-03-19T06:15:49.462Z,7.10
2023-03-19T06:18:16.995Z,7.30
2023-03-19T06:20:44.303Z,6.97
2023-03-19T06:23:11.122Z,7.45
2023-03-19T06:25:38.172Z,7.93
2023-03-19T06:28:06.526Z,5.05
2023-03-19T06:30:34.498Z,7.63
2023-03-19T06:33:01.694Z,5.88
2023-03-19T06:35:28.644Z,5.35
2023-03-19T06:37:55.883Z,7.65
2023-03-19T06:40:22.975Z,7.55
2023-03-19T06:42:49.937Z,6.88
2023-03-19T06:45:18.930Z,7.95
2023-03-19T06:47:47.598Z,8.90
2023-03-19T06:50:16.496Z,9.37
2023-03-19T06:52:43.878Z,9.40
2023-03-19T06:55:12.319Z,8.35
2023-03-19T06:57:39.425Z,9.48
2023-03-19T07:00:08.802Z,9.18
2023-03-19T07:02:35.908Z,8.85
2023-03-19T07:05:03.220Z,9.15
2023-03-19T07:07:30.333Z,9.20
2023-03-19T07:09:57.131Z,8.15
2023-03-19T07:12:24.181Z,10.18
2023-03-19T07:14:51.430Z,9.25
2023-03-19T07:17:18.289Z,10.05
2023-03-19T07:19:45.321Z,10.60
2023-03-19T07:22:12.192Z,10.00
2023-03-19T07:24:39.074Z,8.43
2023-03-19T07:27:06.446Z,10.77
2023-03-19T07:29:33.458Z,10.63
2023-03-19T07:32:00.371Z,10.30
2023-03-19T07:34:27.664Z,9.80
2023-03-19T07:36:54.567Z,11.73
2023-03-19T07:39:21.930Z,11.45
2023-03-19T07:41:49.215Z,11.50
2023-03-19T07:44:16.783Z,10.07
2023-03-19T07:46:43.734Z,11.77
2023-03-19T07:49:11.148Z,12.07
2023-03-19T07:51:38.049Z,13.25
2023-03-19T07:54:05.162Z,12.68
2023-03-19T07:56:32.108Z,12.05
2023-03-19T07:58:59.837Z,13.75
2023-03-19T08:01:26.924Z,13.02
2023-03-19T08:03:53.876Z,13.38
2023-03-19T08:06:20.834Z,13.77
2023-03-19T08:08:47.901Z,13.00
2023-03-19T08:11:14.986Z,14.68
2023-03-19T08:13:43.723Z,12.98
2023-03-19T08:16:10.580Z,13.20
2023-03-19T08:18:37.556Z,11.55
2023-03-19T08:21:04.705Z,12.32
2023-03-19T08:23:31.596Z,13.63
2023-03-19T08:25:58.460Z,12.43
2023-03-19T08:28:25.506Z,12.20
2023-03-19T08:30:52.743Z,12.20
2023-03-19T08:33:19.672Z,11.57
2023-03-19T08:35:46.671Z,11.52
2023-03-19T08:38:13.724Z,12.25
2023-03-19T08:40:40.676Z,12.68
2023-03-19T08:43:07.483Z,13.13
2023-03-19T08:45:34.348Z,12.90
2023-03-19T08:48:01.288Z,11.45
2023-03-19T08:50:28.239Z,12.05
2023-03-19T08:52:56.025Z,12.40
2023-03-19T08:55:22.926Z,10.55
2023-03-19T08:57:49.795Z,11.40
2023-03-19T09:00:17.337Z,11.48
2023-03-19T09:02:44.184Z,11.27
2023-03-19T09:05:10.997Z,11.60
2023-03-19T09:07:37.924Z,10.18
2023-03-19T09:10:05.339Z,10.43
2023-03-19T09:12:32.855Z,9.73
2023-03-19T09:14:59.702Z,9.75
2023-03-19T09:17:26.542Z,9.27
2023-03-19T09:19:53.548Z,9.75
2023-03-19T09:22:20.496Z,10.57
2023-03-19T09:24:47.356Z,10.43
2023-03-19T09:27:14.296Z,10.38
2023-03-19T09:29:41.549Z,10.45
2023-03-19T09:32:08.585Z,11.55
2023-03-19T09:34:35.473Z,11.40
2023-03-19T09:37:02.567Z,11.40
2023-03-19T09:39:29.502Z,10.85
2023-03-19T09:42:20.744Z,11.50
2023-03-19T09:44:47.699Z,10.52
2023-03-19T09:47:17.290Z,10.95
2023-03-19T09:49:49.151Z,11.60
2023-03-19T09:52:25.432Z,11.27
2023-03-19T09:54:54.697Z,10.82
2023-03-19T09:57:21.646Z,10.98
2023-03-19T09:59:49.149Z,10.48
2023-03-19T10:02:22.087Z,10.00
2023-03-19T10:04:59.149Z,9.82
2023-03-19T10:07:44.195Z,10.32
2023-03-19T10:10:42.669Z,10.23
2023-03-19T10:13:19.409Z,11.00
2023-03-19T10:15:47.321Z,11.98
2023-03-19T10:18:24.431Z,10.50
2023-03-19T10:21:00.675Z,10.68
2023-03-19T10:23:55.718Z,10.20
2023-03-19T10:26:29.851Z,9.57
2023-03-19T10:29:12.409Z,9.60
2023-03-19T10:31:58.282Z,9.05
2023-03-19T10:34:35.760Z,9.45
2023-03-19T10:37:16.942Z,8.25
2023-03-19T10:39:46.607Z,8.93
2023-03-19T10:42:51.755Z,8.73
2023-03-19T10:45:33.489Z,8.50
2023-03-19T10:48:02.992Z,9.35
2023-03-19T10:50:43.315Z,8.38
2023-03-19T10:53:13.109Z,8.70
2023-03-19T10:55:57.768Z,9.30
2023-03-19T10:58:27.428Z,8.45
2023-03-19T11:01:04.071Z,9.80
2023-03-19T11:03:38.324Z,10.90
2023-03-19T11:06:19.348Z,9.55
2023-03-19T11:08:58.645Z,9.30
2023-03-19T11:11:27.280Z,8.73
2023-03-19T11:13:54.237Z,9.73
2023-03-19T11:16:21.190Z,9.02
2023-03-19T11:18:49.802Z,9.10
2023-03-19T11:21:28.891Z,9.50
2023-03-19T11:24:04.274Z,9.80
2023-03-19T11:26:31.290Z,9.32
2023-03-19T11:29:04.161Z,8.98
2023-03-19T11:32:06.126Z,8.32
2023-03-19T11:34:45.157Z,8.63
2023-03-19T11:37:50.881Z,9.00
2023-03-19T11:40:20.834Z,9.43
2023-03-19T11:43:17.422Z,8.77
2023-03-19T11:46:22.067Z,8.75
2023-03-19T11:49:23.244Z,9.13
2023-03-19T11:52:13.410Z,9.18
2023-03-19T11:54:59.012Z,9.43
2023-03-19T11:57:38.191Z,7.50
2023-03-19T12:00:31.454Z,8.07
2023-03-19T12:03:29.290Z,6.75
2023-03-19T12:06:32.583Z,8.20
2023-03-19T12:09:19.958Z,9.05
2023-03-19T12:12:03.578Z,8.48
2023-03-19T12:14:39.595Z,8.13
2023-03-19T12:17:21.779Z,7.97
2023-03-19T12:20:03.667Z,8.00
2023-03-19T12:23:03.103Z,8.45
2023-03-19T12:25:54.105Z,7.47
2023-03-19T12:28:29.284Z,8.75
2023-03-19T12:31:29.480Z,7.15
2023-03-19T12:34:29.694Z,7.95
2023-03-19T12:37:35.057Z,7.65
2023-03-19T12:40:15.600Z,7.45
2023-03-19T12:42:42.663Z,7.97
2023-03-19T12:45:35.190Z,7.32
2023-03-19T12:48:13.048Z,8.05
2023-03-19T12:50:43.969Z,8.70
2023-03-19T12:53:52.865Z,8.32
2023-03-19T12:56:41.089Z,8.43
2023-03-19T12:59:36.842Z,8.20
2023-03-19T13:02:20.655Z,8.45
2023-03-19T13:04:55.005Z,8.23
2023-03-19T13:07:49.130Z,8.57
2023-03-19T13:10:20.790Z,7.93
2023-03-19T13:12:50.649Z,7.93
2023-03-19T13:15:24.882Z,7.85
2023-03-19T13:18:37.265Z,7.78
2023-03-19T13:23:38.694Z,8.07
2023-03-19T13:26:09.989Z,8.15
2023-03-19T13:28:38.930Z,8.07
2023-03-19T13:31:09.031Z,8.38
2023-03-19T13:33:39.242Z,7.40
2023-03-19T13:36:09.332Z,7.95
2023-03-19T13:38:41.353Z,8.27
2023-03-19T13:41:39.805Z,8.13
2023-03-19T13:44:22.624Z,8.02
2023-03-19T13:46:51.562Z,7.85
2023-03-19T13:49:29.827Z,7.45
2023-03-19T13:52:11.918Z,7.07
2023-03-19T13:54:41.891Z,7.43
2023-03-19T13:57:17.111Z,6.72
2023-03-19T13:59:50.890Z,7.07
2023-03-19T14:02:25.494Z,6.57
2023-03-19T14:05:02.157Z,6.40
2023-03-19T14:07:37.145Z,6.22
2023-03-19T14:10:09.639Z,6.75
2023-03-19T14:12:44.034Z,6.75
2023-03-19T14:15:10.898Z,6.15
2023-03-19T14:17:53.932Z,7.25
2023-03-19T14:20:36.964Z,6.75
2023-03-19T14:23:06.532Z,7.18
2023-03-19T14:26:19.468Z,6.85
2023-03-19T14:29:02.460Z,6.75
2023-03-19T14:31:47.409Z,6.65
2023-03-19T14:34:28.594Z,7.65
2023-03-19T14:37:25.484Z,7.97
2023-03-19T14:40:26.289Z,7.35
2023-03-19T14:43:09.281Z,10.27
2023-03-19T14:46:03.869Z,9.55
2023-03-19T14:49:03.758Z,10.30
2023-03-19T14:51:53.735Z,10.15
2023-03-19T14:54:28.040Z,10.37
2023-03-19T14:56:56.900Z,9.40
2023-03-19T14:59:23.798Z,9.88
2023-03-19T15:01:53.241Z,10.45
2023-03-19T15:04:25.712Z,9.05
2023-03-19T15:07:01.086Z,9.35
2023-03-19T15:09:31.222Z,8.25
2023-03-19T15:12:13.636Z,10.00
2023-03-19T15:14:59.147Z,10.55
2023-03-19T15:17:28.646Z,10.27
2023-03-19T15:19:58.388Z,9.25
2023-03-19T15:22:37.003Z,10.00
2023-03-19T15:25:15.146Z,10.27
2023-03-19T15:27:42.521Z,10.10
2023-03-19T15:30:30.446Z,10.30
2023-03-19T15:33:12.004Z,10.70
2023-03-19T15:35:41.819Z,10.68
2023-03-19T15:38:12.831Z,8.68
2023-03-19T15:40:42.339Z,10.02
2023-03-19T15:43:12.810Z,10.15
2023-03-19T15:45:41.989Z,10.73
2023-03-19T15:48:17.272Z,10.90
2023-03-19T15:50:47.539Z,11.43
2023-03-19T15:53:24.842Z,10.00
2023-03-19T15:55:54.208Z,12.02
2023-03-19T15:58:24.774Z,12.65
2023-03-19T16:00:54.150Z,13.02
2023-03-19T16:03:28.326Z,11.45
2023-03-19T16:06:05.012Z,12.13
2023-03-19T16:08:32.694Z,12.70
2023-03-19T16:11:34.912Z,11.43
2023-03-19T16:14:10.650Z,12.23
2023-03-19T16:16:40.824Z,13.10
2023-03-19T16:19:30.552Z,11.43
2023-03-19T16:21:58.010Z,12.45
2023-03-19T16:24:34.198Z,14.02
2023-03-19T16:27:13.889Z,11.00
2023-03-19T16:29:47.683Z,12.02
2023-03-19T16:32:24.101Z,12.10
2023-03-19T16:34:55.160Z,11.68
2023-03-19T16:37:46.712Z,11.40
2023-03-19T16:40:13.831Z,10.98
2023-03-19T16:42:45.957Z,12.25
2023-03-19T16:45:18.689Z,11.45
2023-03-19T16:47:53.994Z,11.73
2023-03-19T16:50:23.020Z,12.05
2023-03-19T16:52:50.121Z,11.88
2023-03-19T16:55:26.707Z,11.63
2023-03-19T16:58:03.019Z,12.10
2023-03-19T17:00:32.655Z,13.20
2023-03-19T17:03:00.540Z,12.75
2023-03-19T17:05:28.651Z,12.00
2023-03-19T17:07:56.149Z,12.75
2023-03-19T17:10:25.575Z,15.07
2023-03-19T17:15:20.369Z,12.75
2023-03-19T17:17:47.432Z,14.68
2023-03-19T17:20:36.111Z,13.05
2023-03-19T17:23:13.411Z,13.02
2023-03-19T17:25:40.494Z,13.60
2023-03-19T17:28:07.456Z,13.30
2023-03-19T17:30:34.939Z,12.55
2023-03-19T17:33:02.152Z,13.32
2023-03-19T17:35:29.118Z,14.75
2023-03-19T17:37:56.092Z,14.35
2023-03-19T17:40:29.335Z,12.90
2023-03-19T17:42:57.100Z,13.68
2023-03-19T17:45:28.750Z,14.00
2023-03-19T17:47:58.124Z,14.82
2023-03-19T17:52:56.709Z,14.32
2023-03-19T17:55:26.488Z,14.40
2023-03-19T17:57:54.299Z,16.17
2023-03-19T18:00:24.023Z,14.73
2023-03-19T18:02:53.869Z,17.23
2023-03-19T18:05:25.609Z,16.83
2023-03-19T18:07:55.412Z,16.45
2023-03-19T18:10:30.370Z,17.98
2023-03-19T18:13:00.031Z,17.88
2023-03-19T18:15:29.584Z,15.40
2023-03-19T18:17:58.409Z,15.75
2023-03-19T18:20:28.365Z,17.67
2023-03-19T18:22:55.540Z,16.08
2023-03-19T18:25:27.072Z,17.80
2023-03-19T18:27:54.434Z,15.93
2023-03-19T18:30:23.272Z,16.83
2023-03-19T18:32:56.587Z,16.92
2023-03-19T18:35:37.140Z,16.60
2023-03-19T18:38:04.534Z,15.55
2023-03-19T18:40:33.271Z,16.40
2023-03-19T18:43:01.805Z,16.88
2023-03-19T18:45:30.665Z,16.83
2023-03-19T18:47:58.027Z,19.38
2023-03-19T18:50:29.229Z,19.58
2023-03-19T18:52:57.006Z,19.27
2023-03-19T18:55:28.062Z,20.00
2023-03-19T18:57:59.497Z,20.98
2023-03-19T19:00:35.884Z,22.48
2023-03-19T19:03:03.707Z,17.95
2023-03-19T19:05:32.760Z,20.48
2023-03-19T19:08:03.460Z,22.63
2023-03-19T19:10:34.572Z,21.67
2023-03-19T19:13:02.639Z,20.90
2023-03-19T19:15:32.228Z,22.48
2023-03-19T19:17:59.363Z,22.13
2023-03-19T19:20:28.830Z,21.75
2023-03-19T19:25:26.627Z,20.73
2023-03-19T19:28:16.904Z,21.23
2023-03-19T19:30:44.564Z,22.48
2023-03-19T19:33:19.909Z,21.38
2023-03-19T19:35:47.272Z,18.77
2023-03-19T19:38:14.323Z,20.60
2023-03-19T19:40:47.110Z,20.85
2023-03-19T19:43:25.940Z,21.38
2023-03-19T19:45:55.286Z,21.77
2023-03-19T19:48:24.798Z,23.52
2023-03-19T19:53:19.575Z,21.98
2023-03-19T19:55:46.938Z,20.65
2023-03-19T19:58:23.558Z,19.63
2023-03-19T20:01:02.686Z,19.58
2023-03-19T20:03:32.528Z,19.60
2023-03-19T20:08:27.254Z,20.48
2023-03-19T20:10:55.309Z,18.45
2023-03-19T20:13:29.095Z,18.95
2023-03-19T20:15:58.765Z,19.13
2023-03-19T20:18:30.953Z,17.33
2023-03-19T20:20:59.487Z,17.38
2023-03-19T20:23:26.670Z,16.75
2023-03-19T20:25:54.926Z,16.77
2023-03-19T20:28:30.536Z,17.70
2023-03-19T20:30:57.550Z,16.75
2023-03-19T20:33:24.859Z,16.50
2023-03-19T20:35:52.320Z,17.23
2023-03-19T20:38:19.269Z,16.55
2023-03-19T20:40:52.338Z,16.25
2023-03-19T20:43:27.950Z,16.50
2023-03-19T20:45:57.283Z,16.92
2023-03-19T20:48:25.720Z,18.08
2023-03-19T20:50:53.224Z,16.92
2023-03-19T20:53:20.239Z,17.20
2023-03-19T20:55:47.987Z,15.82
2023-03-19T20:58:22.750Z,14.98
2023-03-19T21:00:49.956Z,14.07
2023-03-19T21:03:19.692Z,12.57
2023-03-19T21:05:46.891Z,12.40
2023-03-19T21:08:19.582Z,11.68
2023-03-19T21:10:49.415Z,11.38
2023-03-19T21:13:18.658Z,12.90
2023-03-19T21:15:47.023Z,11.18
2023-03-19T21:18:14.093Z,13.13
2023-03-19T21:20:43.743Z,10.85
2023-03-19T21:23:34.788Z,10.70
2023-03-19T21:28:37.561Z,10.82
2023-03-19T21:31:05.658Z,11.02
2023-03-19T21:33:34.640Z,10.48
2023-03-19T21:36:02.984Z,10.48
2023-03-19T21:38:30.038Z,10.82
2023-03-19T21:41:00.325Z,11.90
2023-03-19T21:43:56.292Z,10.98
2023-03-19T21:46:28.929Z,12.57
2023-03-19T21:48:57.216Z,11.63
2023-03-19T21:51:26.325Z,11.52
2023-03-19T21:53:53.175Z,10.88
2023-03-19T21:56:32.732Z,12.10
2023-03-19T21:59:09.953Z,10.80
2023-03-19T22:01:36.837Z,11.27
2023-03-19T22:04:03.967Z,10.57
2023-03-19T22:06:30.839Z,11.15
2023-03-19T22:08:57.714Z,11.40
2023-03-19T22:11:30.917Z,10.50
2023-03-19T22:14:04.257Z,11.65
2023-03-19T22:16:32.447Z,11.27
2023-03-19T22:18:59.391Z,11.48
2023-03-19T22:21:26.328Z,10.95
2023-03-19T22:23:53.361Z,11.00
2023-03-19T22:26:41.480Z,10.88
2023-03-19T22:29:15.946Z,10.65
2023-03-19T22:31:43.335Z,10.25
2023-03-19T22:34:22.152Z,10.77
2023-03-19T22:36:49.858Z,10.02
2023-03-19T22:39:16.738Z,10.48
2023-03-19T22:41:46.490Z,9.93
2023-03-19T22:44:33.776Z,10.50
2023-03-19T22:47:01.786Z,9.55
2023-03-19T22:49:29.872Z,10.45
2023-03-19T22:51:57.664Z,10.43
2023-03-19T22:54:24.693Z,10.52
2023-03-19T22:56:51.549Z,9.95
2023-03-19T22:59:18.727Z,10.95
2023-03-19T23:01:47.547Z,10.30
2023-03-19T23:04:21.150Z,11.15
2023-03-19T23:06:48.786Z,10.68
2023-03-19T23:09:18.390Z,11.20
2023-03-19T23:11:45.326Z,10.73
2023-03-19T23:14:28.041Z,11.05
2023-03-19T23:19:30.689Z,10.32
2023-03-19T23:21:58.977Z,11.95
2023-03-19T23:24:26.611Z,11.95
2023-03-19T23:26:55.820Z,11.85
2023-03-19T23:29:30.358Z,11.38
2023-03-19T23:31:58.664Z,11.88
2023-03-19T23:34:26.706Z,12.38
2023-03-19T23:36:53.597Z,12.35
2023-03-19T23:39:21.150Z,12.40
2023-03-19T23:41:52.748Z,12.60
2023-03-19T23:44:20.431Z,13.68
2023-03-19T23:46:49.422Z,13.85
2023-03-19T23:49:24.646Z,14.13
2023-03-19T23:51:51.634Z,13.70
2023-03-19T23:54:24.470Z,13.70
2023-03-19T23:56:52.372Z,14.68
2023-03-19T23:59:19.324Z,12.98
